sensor_id;sensor_type;location;lat;lon;timestamp;pressure;altitude;pressure_sealevel;temperature;humidity
21824;BME280;11074;48.596;9.238;2022-12-18T00:02:05;99416.72;;;-5.17;75.07
21824;BME280;11074;48.596;9.238;2022-12-18T00:04:30;99412.38;;;-5.27;74.35
21824;BME280;11074;48.596;9.238;2022-12-18T00:06:56;99416.03;;;-4.87;75.43
21824;BME280;11074;48.596;9.238;2022-12-18T00:09:22;99410.66;;;-4.74;74.29
21824;BME280;11074;48.596;9.238;2022-12-18T00:11:48;99410.16;;;-4.68;74.59
21824;BME280;11074;48.596;9.238;2022-12-18T00:14:14;99423.31;;;-4.49;74.68
21824;BME280;11074;48.596;9.238;2022-12-18T00:16:43;99419.13;;;-4.61;72.96
21824;BME280;11074;48.596;9.238;2022-12-18T00:19:10;99421.69;;;-4.50;73.01
21824;BME280;11074;48.596;9.238;2022-12-18T00:21:36;99414.13;;;-4.53;72.83
21824;BME280;11074;48.596;9.238;2022-12-18T00:24:02;99413.97;;;-4.52;72.68
21824;BME280;11074;48.596;9.238;2022-12-18T00:26:31;99420.16;;;-4.53;72.51
21824;BME280;11074;48.596;9.238;2022-12-18T00:29:07;99420.84;;;-4.51;72.27
21824;BME280;11074;48.596;9.238;2022-12-18T00:31:34;99428.59;;;-4.60;70.85
21824;BME280;11074;48.596;9.238;2022-12-18T00:34:01;99423.75;;;-4.65;70.10
21824;BME280;11074;48.596;9.238;2022-12-18T00:36:31;99420.47;;;-4.67;70.56
21824;BME280;11074;48.596;9.238;2022-12-18T00:38:59;99420.88;;;-4.82;71.93
21824;BME280;11074;48.596;9.238;2022-12-18T00:41:26;99414.19;;;-5.07;69.66
21824;BME280;11074;48.596;9.238;2022-12-18T00:44:14;99435.44;;;-5.23;69.17
21824;BME280;11074;48.596;9.238;2022-12-18T00:46:41;99448.25;;;-5.31;68.87
21824;BME280;11074;48.596;9.238;2022-12-18T00:49:07;99449.06;;;-5.30;68.52
21824;BME280;11074;48.596;9.238;2022-12-18T00:51:33;99440.34;;;-5.52;69.21
21824;BME280;11074;48.596;9.238;2022-12-18T00:53:59;99437.84;;;-5.64;67.70
21824;BME280;11074;48.596;9.238;2022-12-18T00:56:25;99439.53;;;-5.85;68.46
21824;BME280;11074;48.596;9.238;2022-12-18T00:58:51;99432.81;;;-5.99;69.05
21824;BME280;11074;48.596;9.238;2022-12-18T01:01:17;99427.91;;;-5.59;74.63
21824;BME280;11074;48.596;9.238;2022-12-18T01:03:43;99430.03;;;-5.64;68.39
21824;BME280;11074;48.596;9.238;2022-12-18T01:06:12;99434.06;;;-5.71;70.30
21824;BME280;11074;48.596;9.238;2022-12-18T01:08:39;99447.78;;;-5.69;68.56
21824;BME280;11074;48.596;9.238;2022-12-18T01:11:15;99441.97;;;-5.39;70.58
21824;BME280;11074;48.596;9.238;2022-12-18T01:13:41;99439.50;;;-5.52;68.66
21824;BME280;11074;48.596;9.238;2022-12-18T01:16:07;99435.94;;;-5.40;69.25
21824;BME280;11074;48.596;9.238;2022-12-18T01:18:35;99439.63;;;-5.54;66.56
21824;BME280;11074;48.596;9.238;2022-12-18T01:21:00;99437.06;;;-5.87;66.33
21824;BME280;11074;48.596;9.238;2022-12-18T01:23:30;99434.31;;;-5.85;66.26
21824;BME280;11074;48.596;9.238;2022-12-18T01:25:56;99427.56;;;-5.77;66.63
21824;BME280;11074;48.596;9.238;2022-12-18T01:28:21;99439.50;;;-5.52;69.42
21824;BME280;11074;48.596;9.238;2022-12-18T01:30:47;99444.25;;;-5.35;69.04
21824;BME280;11074;48.596;9.238;2022-12-18T01:33:13;99445.41;;;-5.39;66.23
21824;BME280;11074;48.596;9.238;2022-12-18T01:35:42;99454.06;;;-5.61;64.22
21824;BME280;11074;48.596;9.238;2022-12-18T01:38:08;99449.22;;;-5.76;65.38
21824;BME280;11074;48.596;9.238;2022-12-18T01:40:34;99440.81;;;-5.69;65.98
21824;BME280;11074;48.596;9.238;2022-12-18T01:43:00;99436.53;;;-5.59;67.49
21824;BME280;11074;48.596;9.238;2022-12-18T01:45:29;99445.78;;;-5.43;70.41
21824;BME280;11074;48.596;9.238;2022-12-18T01:47:56;99452.38;;;-5.39;70.49
21824;BME280;11074;48.596;9.238;2022-12-18T01:50:36;99458.56;;;-5.63;70.39
21824;BME280;11074;48.596;9.238;2022-12-18T01:53:25;99461.16;;;-6.07;72.25
21824;BME280;11074;48.596;9.238;2022-12-18T01:55:57;99467.19;;;-5.95;71.35
21824;BME280;11074;48.596;9.238;2022-12-18T01:59:04;99453.72;;;-5.89;70.33
21824;BME280;11074;48.596;9.238;2022-12-18T02:01:33;99441.06;;;-5.83;73.03
21824;BME280;11074;48.596;9.238;2022-12-18T02:04:26;99441.66;;;-6.01;72.85
21824;BME280;11074;48.596;9.238;2022-12-18T02:13:19;99438.00;;;-5.99;67.88
21824;BME280;11074;48.596;9.238;2022-12-18T02:16:01;99446.00;;;-5.80;68.44
21824;BME280;11074;48.596;9.238;2022-12-18T02:18:36;99460.81;;;-5.69;71.56
21824;BME280;11074;48.596;9.238;2022-12-18T02:21:31;99453.59;;;-5.77;71.22
21824;BME280;11074;48.596;9.238;2022-12-18T02:24:33;99436.81;;;-5.95;69.68
21824;BME280;11074;48.596;9.238;2022-12-18T02:27:05;99441.75;;;-5.81;71.80
21824;BME280;11074;48.596;9.238;2022-12-18T02:29:44;99441.66;;;-5.90;69.91
21824;BME280;11074;48.596;9.238;2022-12-18T02:32:20;99435.59;;;-5.80;71.94
21824;BME280;11074;48.596;9.238;2022-12-18T02:34:50;99446.38;;;-5.84;71.79
21824;BME280;11074;48.596;9.238;2022-12-18T02:37:19;99449.09;;;-5.75;72.82
21824;BME280;11074;48.596;9.238;2022-12-18T02:39:48;99453.34;;;-5.63;72.67
21824;BME280;11074;48.596;9.238;2022-12-18T02:42:16;99460.81;;;-5.69;69.71
21824;BME280;11074;48.596;9.238;2022-12-18T02:44:48;99459.97;;;-5.59;70.97
21824;BME280;11074;48.596;9.238;2022-12-18T02:47:19;99475.97;;;-5.63;69.73
21824;BME280;11074;48.596;9.238;2022-12-18T02:50:30;99470.50;;;-5.71;70.52
21824;BME280;11074;48.596;9.238;2022-12-18T02:53:26;99484.13;;;-5.90;71.62
21824;BME280;11074;48.596;9.238;2022-12-18T02:56:05;99484.97;;;-5.78;71.81
21824;BME280;11074;48.596;9.238;2022-12-18T02:58:56;99480.00;;;-5.70;71.94
21824;BME280;11074;48.596;9.238;2022-12-18T03:04:45;99474.06;;;-5.94;73.21
21824;BME280;11074;48.596;9.238;2022-12-18T03:07:26;99463.75;;;-5.96;72.75
21824;BME280;11074;48.596;9.238;2022-12-18T03:09:54;99463.75;;;-5.96;71.86
21824;BME280;11074;48.596;9.238;2022-12-18T03:12:30;99466.34;;;-6.18;69.71
21824;BME280;11074;48.596;9.238;2022-12-18T03:15:15;99461.41;;;-5.99;71.35
21824;BME280;11074;48.596;9.238;2022-12-18T03:17:48;99466.63;;;-5.99;72.22
21824;BME280;11074;48.596;9.238;2022-12-18T03:20:20;99473.44;;;-6.09;71.10
21824;BME280;11074;48.596;9.238;2022-12-18T03:22:55;99464.81;;;-5.98;72.41
21824;BME280;11074;48.596;9.238;2022-12-18T03:25:25;99473.66;;;-6.23;72.49
21824;BME280;11074;48.596;9.238;2022-12-18T03:27:56;99472.50;;;-6.08;72.33
21824;BME280;11074;48.596;9.238;2022-12-18T03:30:28;99478.16;;;-6.14;68.71
21824;BME280;11074;48.596;9.238;2022-12-18T03:33:21;99476.91;;;-6.43;68.43
21824;BME280;11074;48.596;9.238;2022-12-18T03:35:50;99482.44;;;-6.48;68.96
21824;BME280;11074;48.596;9.238;2022-12-18T03:38:16;99488.78;;;-6.63;67.34
21824;BME280;11074;48.596;9.238;2022-12-18T03:44:10;99483.09;;;-6.57;67.39
21824;BME280;11074;48.596;9.238;2022-12-18T03:46:56;99480.81;;;-6.72;67.98
21824;BME280;11074;48.596;9.238;2022-12-18T03:52:50;99477.06;;;-6.34;67.74
21824;BME280;11074;48.596;9.238;2022-12-18T03:55:21;99479.06;;;-6.37;67.10
21824;BME280;11074;48.596;9.238;2022-12-18T03:57:49;99492.88;;;-6.95;66.48
21824;BME280;11074;48.596;9.238;2022-12-18T04:00:19;99498.66;;;-6.92;67.02
21824;BME280;11074;48.596;9.238;2022-12-18T04:02:54;99488.44;;;-6.58;70.05
21824;BME280;11074;48.596;9.238;2022-12-18T04:05:24;99467.72;;;-6.60;68.03
21824;BME280;11074;48.596;9.238;2022-12-18T04:07:52;99471.56;;;-6.53;69.72
21824;BME280;11074;48.596;9.238;2022-12-18T04:10:19;99476.84;;;-6.65;67.09
21824;BME280;11074;48.596;9.238;2022-12-18T04:12:45;99495.25;;;-6.92;67.26
21824;BME280;11074;48.596;9.238;2022-12-18T04:15:12;99490.31;;;-6.84;66.24
21824;BME280;11074;48.596;9.238;2022-12-18T04:17:41;99499.44;;;-6.55;68.19
21824;BME280;11074;48.596;9.238;2022-12-18T04:20:09;99491.63;;;-6.31;68.82
21824;BME280;11074;48.596;9.238;2022-12-18T04:22:35;99490.22;;;-6.24;67.84
21824;BME280;11074;48.596;9.238;2022-12-18T04:25:00;99488.09;;;-6.54;64.90
21824;BME280;11074;48.596;9.238;2022-12-18T04:27:26;99492.66;;;-6.68;65.54
21824;BME280;11074;48.596;9.238;2022-12-18T04:29:52;99476.81;;;-6.42;69.35
21824;BME280;11074;48.596;9.238;2022-12-18T04:32:17;99479.75;;;-6.35;67.80
21824;BME280;11074;48.596;9.238;2022-12-18T04:34:43;99488.44;;;-6.82;65.11
21824;BME280;11074;48.596;9.238;2022-12-18T04:37:09;99500.72;;;-6.84;67.54
21824;BME280;11074;48.596;9.238;2022-12-18T04:39:34;99494.75;;;-6.73;67.47
21824;BME280;11074;48.596;9.238;2022-12-18T04:42:01;99492.22;;;-6.51;68.60
21824;BME280;11074;48.596;9.238;2022-12-18T04:44:27;99499.88;;;-6.61;66.12
21824;BME280;11074;48.596;9.238;2022-12-18T04:46:52;99505.03;;;-6.72;66.00
21824;BME280;11074;48.596;9.238;2022-12-18T04:49:18;99498.56;;;-6.66;68.00
21824;BME280;11074;48.596;9.238;2022-12-18T04:51:44;99495.13;;;-6.67;65.65
21824;BME280;11074;48.596;9.238;2022-12-18T04:54:09;99491.38;;;-6.87;66.55
21824;BME280;11074;48.596;9.238;2022-12-18T04:56:35;99487.72;;;-6.84;66.32
21824;BME280;11074;48.596;9.238;2022-12-18T04:59:01;99487.31;;;-6.91;66.88
21824;BME280;11074;48.596;9.238;2022-12-18T05:01:26;99482.56;;;-6.97;66.79
21824;BME280;11074;48.596;9.238;2022-12-18T05:03:52;99486.13;;;-7.10;66.81
21824;BME280;11074;48.596;9.238;2022-12-18T05:06:18;99479.16;;;-6.97;66.92
21824;BME280;11074;48.596;9.238;2022-12-18T05:08:44;99484.22;;;-6.96;66.15
21824;BME280;11074;48.596;9.238;2022-12-18T05:11:13;99475.38;;;-6.93;66.20
21824;BME280;11074;48.596;9.238;2022-12-18T05:13:43;99477.75;;;-6.90;67.41
21824;BME280;11074;48.596;9.238;2022-12-18T05:16:10;99478.75;;;-6.80;66.96
21824;BME280;11074;48.596;9.238;2022-12-18T05:18:36;99476.66;;;-6.99;66.28
21824;BME280;11074;48.596;9.238;2022-12-18T05:21:02;99483.22;;;-7.06;66.98
21824;BME280;11074;48.596;9.238;2022-12-18T05:23:29;99482.91;;;-7.01;66.94
21824;BME280;11074;48.596;9.238;2022-12-18T05:25:58;99480.22;;;-6.76;67.78
21824;BME280;11074;48.596;9.238;2022-12-18T05:28:27;99485.50;;;-7.01;66.47
21824;BME280;11074;48.596;9.238;2022-12-18T05:30:55;99480.25;;;-6.89;67.23
21824;BME280;11074;48.596;9.238;2022-12-18T05:33:25;99488.22;;;-6.79;68.84
21824;BME280;11074;48.596;9.238;2022-12-18T05:35:53;99477.63;;;-6.65;69.88
21824;BME280;11074;48.596;9.238;2022-12-18T05:38:22;99491.91;;;-6.94;67.34
21824;BME280;11074;48.596;9.238;2022-12-18T05:40:52;99487.31;;;-7.14;67.17
21824;BME280;11074;48.596;9.238;2022-12-18T05:43:20;99488.69;;;-7.21;66.05
21824;BME280;11074;48.596;9.238;2022-12-18T05:45:47;99485.53;;;-7.14;67.68
21824;BME280;11074;48.596;9.238;2022-12-18T05:48:14;99498.25;;;-7.22;66.03
21824;BME280;11074;48.596;9.238;2022-12-18T05:50:42;99503.72;;;-7.14;64.62
21824;BME280;11074;48.596;9.238;2022-12-18T05:53:09;99500.38;;;-7.03;64.51
21824;BME280;11074;48.596;9.238;2022-12-18T05:55:37;99488.38;;;-6.93;68.25
21824;BME280;11074;48.596;9.238;2022-12-18T05:58:05;99491.38;;;-6.87;65.28
21824;BME280;11074;48.596;9.238;2022-12-18T06:00:34;99492.09;;;-6.85;64.61
21824;BME280;11074;48.596;9.238;2022-12-18T06:03:01;99485.44;;;-6.89;63.58
21824;BME280;11074;48.596;9.238;2022-12-18T06:05:27;99484.88;;;-7.05;63.99
21824;BME280;11074;48.596;9.238;2022-12-18T06:07:53;99485.72;;;-7.04;64.74
21824;BME280;11074;48.596;9.238;2022-12-18T06:10:19;99479.31;;;-7.11;64.62
21824;BME280;11074;48.596;9.238;2022-12-18T06:12:44;99474.38;;;-7.03;64.17
21824;BME280;11074;48.596;9.238;2022-12-18T06:15:10;99482.41;;;-7.06;64.81
21824;BME280;11074;48.596;9.238;2022-12-18T06:17:37;99485.84;;;-7.18;65.53
21824;BME280;11074;48.596;9.238;2022-12-18T06:20:04;99495.22;;;-7.16;66.04
21824;BME280;11074;48.596;9.238;2022-12-18T06:22:32;99496.47;;;-7.34;66.37
21824;BME280;11074;48.596;9.238;2022-12-18T06:24:57;99497.09;;;-7.30;67.30
21824;BME280;11074;48.596;9.238;2022-12-18T06:27:24;99500.34;;;-7.27;67.09
21824;BME280;11074;48.596;9.238;2022-12-18T06:29:50;99498.38;;;-7.36;66.32
21824;BME280;11074;48.596;9.238;2022-12-18T06:32:16;99500.13;;;-7.37;66.46
21824;BME280;11074;48.596;9.238;2022-12-18T06:34:42;99506.56;;;-7.29;65.16
21824;BME280;11074;48.596;9.238;2022-12-18T06:37:07;99506.13;;;-7.23;67.36
21824;BME280;11074;48.596;9.238;2022-12-18T06:39:33;99508.50;;;-7.20;66.51
21824;BME280;11074;48.596;9.238;2022-12-18T06:41:59;99516.22;;;-7.19;66.24
21824;BME280;11074;48.596;9.238;2022-12-18T06:44:24;99521.09;;;-7.27;64.82
21824;BME280;11074;48.596;9.238;2022-12-18T06:46:50;99525.56;;;-7.29;65.06
21824;BME280;11074;48.596;9.238;2022-12-18T06:49:16;99536.69;;;-7.27;65.30
21824;BME280;11074;48.596;9.238;2022-12-18T06:51:42;99536.88;;;-7.17;63.89
21824;BME280;11074;48.596;9.238;2022-12-18T06:54:08;99535.31;;;-7.20;62.75
21824;BME280;11074;48.596;9.238;2022-12-18T06:56:34;99542.78;;;-7.15;65.94
21824;BME280;11074;48.596;9.238;2022-12-18T06:59:00;99536.78;;;-7.16;66.56
21824;BME280;11074;48.596;9.238;2022-12-18T07:01:26;99537.28;;;-7.11;67.58
21824;BME280;11074;48.596;9.238;2022-12-18T07:03:54;99542.94;;;-6.93;66.49
21824;BME280;11074;48.596;9.238;2022-12-18T07:06:23;99539.50;;;-6.94;65.85
21824;BME280;11074;48.596;9.238;2022-12-18T07:08:51;99543.44;;;-7.24;64.46
21824;BME280;11074;48.596;9.238;2022-12-18T07:11:18;99553.13;;;-7.64;65.46
21824;BME280;11074;48.596;9.238;2022-12-18T07:13:44;99540.75;;;-7.61;67.07
21824;BME280;11074;48.596;9.238;2022-12-18T07:16:16;99546.75;;;-7.48;69.19
21824;BME280;11074;48.596;9.238;2022-12-18T07:18:42;99548.03;;;-7.41;67.22
21824;BME280;11074;48.596;9.238;2022-12-18T07:21:14;99561.91;;;-7.16;68.41
21824;BME280;11074;48.596;9.238;2022-12-18T07:23:41;99560.22;;;-7.05;68.47
21824;BME280;11074;48.596;9.238;2022-12-18T07:26:13;99563.13;;;-7.09;63.24
21824;BME280;11074;48.596;9.238;2022-12-18T07:28:41;99556.25;;;-6.98;68.06
21824;BME280;11074;48.596;9.238;2022-12-18T07:31:27;99563.16;;;-7.22;64.83
21824;BME280;11074;48.596;9.238;2022-12-18T07:33:52;99563.41;;;-7.38;64.66
21824;BME280;11074;48.596;9.238;2022-12-18T07:36:19;99566.59;;;-7.47;64.51
21824;BME280;11074;48.596;9.238;2022-12-18T07:38:48;99571.91;;;-7.35;66.58
21824;BME280;11074;48.596;9.238;2022-12-18T07:41:14;99567.44;;;-7.46;64.80
21824;BME280;11074;48.596;9.238;2022-12-18T07:43:41;99558.72;;;-7.32;66.26
21824;BME280;11074;48.596;9.238;2022-12-18T07:46:07;99568.78;;;-7.41;64.99
21824;BME280;11074;48.596;9.238;2022-12-18T07:48:34;99564.03;;;-7.59;65.47
21824;BME280;11074;48.596;9.238;2022-12-18T07:51:05;99570.66;;;-7.68;65.93
21824;BME280;11074;48.596;9.238;2022-12-18T07:53:32;99560.50;;;-7.46;65.42
21824;BME280;11074;48.596;9.238;2022-12-18T07:56:02;99555.28;;;-7.33;65.44
21824;BME280;11074;48.596;9.238;2022-12-18T07:58:29;99564.72;;;-7.19;67.36
21824;BME280;11074;48.596;9.238;2022-12-18T08:01:10;99561.50;;;-7.23;69.62
21824;BME280;11074;48.596;9.238;2022-12-18T08:03:39;99569.84;;;-7.43;66.85
21824;BME280;11074;48.596;9.238;2022-12-18T08:06:08;99573.03;;;-7.40;66.27
21824;BME280;11074;48.596;9.238;2022-12-18T08:08:35;99572.28;;;-7.29;67.45
21824;BME280;11074;48.596;9.238;2022-12-18T08:11:02;99571.84;;;-7.10;67.70
21824;BME280;11074;48.596;9.238;2022-12-18T08:13:28;99571.84;;;-6.98;68.43
21824;BME280;11074;48.596;9.238;2022-12-18T08:16:04;99573.69;;;-6.87;69.41
21824;BME280;11074;48.596;9.238;2022-12-18T08:18:34;99574.91;;;-6.80;69.27
21824;BME280;11074;48.596;9.238;2022-12-18T08:21:15;99574.09;;;-6.81;67.38
21824;BME280;11074;48.596;9.238;2022-12-18T08:23:41;99577.81;;;-6.72;66.60
21824;BME280;11074;48.596;9.238;2022-12-18T08:26:08;99569.78;;;-6.69;66.01
21824;BME280;11074;48.596;9.238;2022-12-18T08:28:34;99573.81;;;-6.65;66.17
21824;BME280;11074;48.596;9.238;2022-12-18T08:31:01;99567.56;;;-6.62;66.68
21824;BME280;11074;48.596;9.238;2022-12-18T08:33:27;99567.47;;;-6.61;65.51
21824;BME280;11074;48.596;9.238;2022-12-18T08:35:52;99567.47;;;-6.61;65.64
21824;BME280;11074;48.596;9.238;2022-12-18T08:38:18;99575.91;;;-6.57;66.33
21824;BME280;11074;48.596;9.238;2022-12-18T08:40:44;99573.78;;;-6.52;66.01
21824;BME280;11074;48.596;9.238;2022-12-18T08:43:11;99558.06;;;-6.51;67.39
21824;BME280;11074;48.596;9.238;2022-12-18T08:45:55;99569.97;;;-6.36;67.69
21824;BME280;11074;48.596;9.238;2022-12-18T08:48:21;99564.25;;;-6.41;66.77
21824;BME280;11074;48.596;9.238;2022-12-18T08:50:55;99567.03;;;-6.31;66.97
21824;BME280;11074;48.596;9.238;2022-12-18T08:53:21;99561.63;;;-6.28;67.01
21824;BME280;11074;48.596;9.238;2022-12-18T08:55:47;99575.13;;;-6.23;67.79
21824;BME280;11074;48.596;9.238;2022-12-18T08:58:12;99572.63;;;-6.25;66.58
21824;BME280;11074;48.596;9.238;2022-12-18T09:00:38;99563.75;;;-6.22;66.59
21824;BME280;11074;48.596;9.238;2022-12-18T09:03:04;99569.09;;;-6.24;67.30
21824;BME280;11074;48.596;9.238;2022-12-18T09:05:30;99551.84;;;-6.13;68.10
21824;BME280;11074;48.596;9.238;2022-12-18T09:07:56;99556.13;;;-6.12;68.26
21824;BME280;11074;48.596;9.238;2022-12-18T09:10:21;99547.00;;;-6.18;68.10
21824;BME280;11074;48.596;9.238;2022-12-18T09:12:47;99550.44;;;-6.06;67.90
21824;BME280;11074;48.596;9.238;2022-12-18T09:15:13;99535.66;;;-6.06;67.65
21824;BME280;11074;48.596;9.238;2022-12-18T09:17:38;99541.25;;;-5.99;66.88
21824;BME280;11074;48.596;9.238;2022-12-18T09:20:05;99541.03;;;-5.96;66.51
21824;BME280;11074;48.596;9.238;2022-12-18T09:22:31;99539.13;;;-5.94;67.94
21824;BME280;11074;48.596;9.238;2022-12-18T09:24:56;99546.38;;;-5.87;67.03
21824;BME280;11074;48.596;9.238;2022-12-18T09:27:22;99542.84;;;-5.86;67.92
21824;BME280;11074;48.596;9.238;2022-12-18T09:29:48;99543.16;;;-5.79;69.08
21824;BME280;11074;48.596;9.238;2022-12-18T09:32:13;99531.69;;;-5.77;67.99
21824;BME280;11074;48.596;9.238;2022-12-18T09:34:39;99527.69;;;-5.70;67.12
21824;BME280;11074;48.596;9.238;2022-12-18T09:37:05;99535.38;;;-5.68;67.36
21824;BME280;11074;48.596;9.238;2022-12-18T09:39:31;99531.47;;;-5.63;68.30
21824;BME280;11074;48.596;9.238;2022-12-18T09:41:58;99534.09;;;-5.63;67.05
21824;BME280;11074;48.596;9.238;2022-12-18T09:44:32;99532.56;;;-5.54;67.37
21824;BME280;11074;48.596;9.238;2022-12-18T09:47:34;99531.50;;;-5.52;67.39
21824;BME280;11074;48.596;9.238;2022-12-18T09:50:28;99525.94;;;-5.47;68.39
21824;BME280;11074;48.596;9.238;2022-12-18T09:52:57;99524.50;;;-5.40;68.01
21824;BME280;11074;48.596;9.238;2022-12-18T09:55:37;99520.81;;;-5.37;68.02
21824;BME280;11074;48.596;9.238;2022-12-18T09:58:33;99517.28;;;-5.36;68.20
21824;BME280;11074;48.596;9.238;2022-12-18T10:01:02;99513.25;;;-5.29;68.63
21824;BME280;11074;48.596;9.238;2022-12-18T10:03:27;99506.88;;;-5.25;68.60
21824;BME280;11074;48.596;9.238;2022-12-18T10:06:05;99510.16;;;-5.23;68.07
21824;BME280;11074;48.596;9.238;2022-12-18T10:08:57;99512.91;;;-5.25;68.42
21824;BME280;11074;48.596;9.238;2022-12-18T10:18:02;99505.31;;;-5.06;69.52
21824;BME280;11074;48.596;9.238;2022-12-18T10:20:51;99514.53;;;-5.02;70.30
21824;BME280;11074;48.596;9.238;2022-12-18T10:23:58;99511.22;;;-5.04;69.66
21824;BME280;11074;48.596;9.238;2022-12-18T10:26:25;99509.31;;;-5.02;70.12
21824;BME280;11074;48.596;9.238;2022-12-18T10:28:52;99515.00;;;-4.97;71.08
21824;BME280;11074;48.596;9.238;2022-12-18T10:31:23;99513.09;;;-4.95;71.00
21824;BME280;11074;48.596;9.238;2022-12-18T10:33:49;99511.91;;;-4.91;71.57
21824;BME280;11074;48.596;9.238;2022-12-18T10:36:15;99496.97;;;-4.88;70.81
21824;BME280;11074;48.596;9.238;2022-12-18T10:38:41;99501.34;;;-4.78;71.08
21824;BME280;11074;48.596;9.238;2022-12-18T10:41:27;99503.78;;;-4.65;70.87
21824;BME280;11074;48.596;9.238;2022-12-18T10:44:21;99501.75;;;-4.62;71.29
21824;BME280;11074;48.596;9.238;2022-12-18T10:46:53;99505.31;;;-4.63;71.38
21824;BME280;11074;48.596;9.238;2022-12-18T10:49:32;99510.28;;;-4.60;72.11
21824;BME280;11074;48.596;9.238;2022-12-18T10:52:17;99504.72;;;-4.55;71.77
21824;BME280;11074;48.596;9.238;2022-12-18T10:54:51;99501.59;;;-4.49;71.33
21824;BME280;11074;48.596;9.238;2022-12-18T11:02:37;99495.47;;;-4.28;72.03
21824;BME280;11074;48.596;9.238;2022-12-18T11:05:30;99498.41;;;-4.21;71.74
21824;BME280;11074;48.596;9.238;2022-12-18T11:07:59;99492.22;;;-4.20;71.53
21824;BME280;11074;48.596;9.238;2022-12-18T11:10:46;99486.75;;;-4.17;71.68
21824;BME280;11074;48.596;9.238;2022-12-18T11:13:22;99481.13;;;-4.12;72.15
21824;BME280;11074;48.596;9.238;2022-12-18T11:15:50;99483.88;;;-4.14;71.90
21824;BME280;11074;48.596;9.238;2022-12-18T11:18:32;99480.09;;;-4.10;72.98
21824;BME280;11074;48.596;9.238;2022-12-18T11:21:11;99464.72;;;-4.03;72.68
21824;BME280;11074;48.596;9.238;2022-12-18T11:23:52;99459.34;;;-4.02;72.49
21824;BME280;11074;48.596;9.238;2022-12-18T11:26:19;99459.69;;;-3.95;73.73
21824;BME280;11074;48.596;9.238;2022-12-18T11:29:08;99455.09;;;-3.82;73.18
21824;BME280;11074;48.596;9.238;2022-12-18T11:31:34;99451.53;;;-3.81;73.14
21824;BME280;11074;48.596;9.238;2022-12-18T11:36:35;99454.88;;;-3.70;72.80
21824;BME280;11074;48.596;9.238;2022-12-18T11:39:14;99440.72;;;-3.67;72.74
21824;BME280;11074;48.596;9.238;2022-12-18T11:42:12;99438.56;;;-3.62;72.68
21824;BME280;11074;48.596;9.238;2022-12-18T11:44:50;99440.44;;;-3.64;73.26
21824;BME280;11074;48.596;9.238;2022-12-18T11:47:58;99435.38;;;-3.65;73.85
21824;BME280;11074;48.596;9.238;2022-12-18T11:50:38;99425.50;;;-3.62;74.04
21824;BME280;11074;48.596;9.238;2022-12-18T11:53:11;99433.03;;;-3.59;73.91
21824;BME280;11074;48.596;9.238;2022-12-18T11:55:52;99426.63;;;-3.55;74.28
21824;BME280;11074;48.596;9.238;2022-12-18T12:10:24;99411.34;;;-3.00;75.34
21824;BME280;11074;48.596;9.238;2022-12-18T12:16:18;99396.22;;;-2.78;74.21
21824;BME280;11074;48.596;9.238;2022-12-18T12:21:39;99397.34;;;-2.61;74.09
21824;BME280;11074;48.596;9.238;2022-12-18T12:27:05;99393.59;;;-2.49;73.75
21824;BME280;11074;48.596;9.238;2022-12-18T12:29:58;99390.16;;;-2.59;72.99
21824;BME280;11074;48.596;9.238;2022-12-18T12:38:23;99391.25;;;-2.42;73.71
21824;BME280;11074;48.596;9.238;2022-12-18T12:41:01;99393.56;;;-2.39;74.11
21824;BME280;11074;48.596;9.238;2022-12-18T12:43:42;99392.63;;;-2.38;73.88
21824;BME280;11074;48.596;9.238;2022-12-18T12:46:13;99390.28;;;-2.41;73.46
21824;BME280;11074;48.596;9.238;2022-12-18T12:49:02;99394.00;;;-2.34;73.51
21824;BME280;11074;48.596;9.238;2022-12-18T12:51:34;99398.94;;;-2.31;73.48
21824;BME280;11074;48.596;9.238;2022-12-18T12:54:04;99395.34;;;-2.30;73.65
21824;BME280;11074;48.596;9.238;2022-12-18T12:57:12;99406.91;;;-2.23;73.30
21824;BME280;11074;48.596;9.238;2022-12-18T13:02:56;99415.59;;;-2.13;73.30
21824;BME280;11074;48.596;9.238;2022-12-18T13:05:48;99412.53;;;-2.09;74.21
21824;BME280;11074;48.596;9.238;2022-12-18T13:08:30;99400.69;;;-2.03;74.36
21824;BME280;11074;48.596;9.238;2022-12-18T13:10:59;99393.22;;;-1.98;75.31
21824;BME280;11074;48.596;9.238;2022-12-18T13:13:54;99404.94;;;-1.93;74.68
21824;BME280;11074;48.596;9.238;2022-12-18T13:16:23;99407.78;;;-1.86;74.57
21824;BME280;11074;48.596;9.238;2022-12-18T13:18:56;99406.53;;;-1.82;74.42
21824;BME280;11074;48.596;9.238;2022-12-18T13:21:33;99408.28;;;-1.73;73.68
21824;BME280;11074;48.596;9.238;2022-12-18T13:24:30;99418.38;;;-1.68;74.48
21824;BME280;11074;48.596;9.238;2022-12-18T13:26:56;99420.53;;;-1.64;74.23
21824;BME280;11074;48.596;9.238;2022-12-18T13:29:43;99410.59;;;-1.60;75.25
21824;BME280;11074;48.596;9.238;2022-12-18T13:32:25;99397.22;;;-1.57;75.75
21824;BME280;11074;48.596;9.238;2022-12-18T13:37:54;99412.06;;;-1.48;74.70
21824;BME280;11074;48.596;9.238;2022-12-18T13:51:23;99391.19;;;-1.40;75.36
21824;BME280;11074;48.596;9.238;2022-12-18T13:53:54;99393.34;;;-1.36;75.18
21824;BME280;11074;48.596;9.238;2022-12-18T13:56:28;99390.44;;;-1.33;75.74
21824;BME280;11074;48.596;9.238;2022-12-18T14:01:58;99396.63;;;-1.24;75.05
21824;BME280;11074;48.596;9.238;2022-12-18T14:04:29;99397.00;;;-1.19;74.85
21824;BME280;11074;48.596;9.238;2022-12-18T14:09:34;99397.38;;;-1.14;74.88
21824;BME280;11074;48.596;9.238;2022-12-18T14:12:00;99390.50;;;-1.15;75.13
21824;BME280;11074;48.596;9.238;2022-12-18T14:14:48;99399.19;;;-1.14;75.01
21824;BME280;11074;48.596;9.238;2022-12-18T14:17:16;99411.78;;;-1.18;75.46
21824;BME280;11074;48.596;9.238;2022-12-18T14:19:48;99403.66;;;-1.25;75.84
21824;BME280;11074;48.596;9.238;2022-12-18T14:22:23;99403.44;;;-1.31;75.80
21824;BME280;11074;48.596;9.238;2022-12-18T14:27:43;99402.16;;;-1.54;77.19
21824;BME280;11074;48.596;9.238;2022-12-18T14:36:02;99400.97;;;-1.69;77.89
21824;BME280;11074;48.596;9.238;2022-12-18T14:38:37;99409.56;;;-1.77;77.94
21824;BME280;11074;48.596;9.238;2022-12-18T14:41:12;99401.31;;;-1.82;78.01
21824;BME280;11074;48.596;9.238;2022-12-18T14:43:41;99403.53;;;-1.87;79.35
21824;BME280;11074;48.596;9.238;2022-12-18T14:49:01;99404.78;;;-1.91;79.07
21824;BME280;11074;48.596;9.238;2022-12-18T14:51:33;99402.44;;;-1.94;78.76
21824;BME280;11074;48.596;9.238;2022-12-18T14:54:05;99401.78;;;-2.06;78.74
21824;BME280;11074;48.596;9.238;2022-12-18T14:57:01;99403.63;;;-2.16;79.76